Time;durP1;ratioP1;P1;durP2;ratioP2;P2;SDS_P1;SDS_P2;PMS_P1;PMS_P2;Temp;Humidity;BMP_temperature;BMP_pressure;BME280_temperature;BME280_humidity;BME280_pressure;Samples;Min_cycle;Max_cycle;Signal;HPM_P1;HPM_P2
2023/02/27 00:00:31;;;;;;;;;;;;;;;;;;6167257;23;19908;-81
2023/02/27 00:02:57;;;;;;;;;;;;;;;;;;6168215;23;19908;-82
2023/02/27 00:05:22;;;;;;;;;;;;;;;;;;6167173;23;19943;-81
2023/02/27 00:07:48;;;;;;;;;;;;;;;;;;6169274;23;19909;-82
2023/02/27 00:10:13;;;;;;;;;;;;;;;;;;6169319;23;20116;-82
2023/02/27 00:12:39;;;;;;;;;;;;;;;;;;6171220;23;19912;-82
2023/02/27 00:15:04;;;;;;;;;;;;;;;;;;6172062;23;20321;-82
2023/02/27 00:17:30;;;;;;;;;;;;;;;;;;6170581;23;19944;-81
2023/02/27 00:19:55;;;;;;;;;;;;;;;;;;6169481;23;19916;-83
2023/02/27 00:22:21;;;;;;;;;;;;;;;;;;6171260;23;19915;-82
2023/02/27 00:24:46;;;;;;;;;;;;;;;;;;6170073;23;19924;-82
2023/02/27 00:27:11;;;;;;;;;;;;;;;;;;6161648;23;19908;-79
2023/02/27 00:29:37;;;;;;;;;;;;;;;;;;6164767;23;19991;-82
2023/02/27 00:32:02;;;;;;;;;;;;;;;;;;6168183;23;19909;-83
2023/02/27 00:34:27;;;;;;;;;;;;;;;;;;6169562;23;19909;-83
2023/02/27 00:36:53;;;;;;;;;;;;;;;;;;6142670;23;20335;-82
2023/02/27 00:39:18;;;;;;;;;;;;;;;;;;6169986;23;19936;-80
2023/02/27 00:41:44;;;;;;;;;;;;;;;;;;6169567;23;19932;-83
2023/02/27 00:44:09;;;;;;;;;;;;;;;;;;6171601;23;19912;-83
2023/02/27 00:46:35;;;;;;;;;;;;;;;;;;6146268;23;19913;-81
2023/02/27 00:49:00;;;;;;;;;;;;;;;;;;6171656;23;19913;-82
2023/02/27 00:51:26;;;;;;;;;;;;;;;;;;6170372;23;19952;-82
2023/02/27 00:53:51;;;;;;;;;;;;;;;;;;6168977;23;19908;-82
2023/02/27 00:56:17;;;;;;;;;;;;;;;;;;6167231;23;19908;-82
2023/02/27 00:58:43;;;;;;;;;;;;;;;;;;6166183;23;19943;-82
2023/02/27 01:01:08;;;;;;;;;;;;;;;;;;6115799;23;19908;-82
2023/02/27 01:03:34;;;;;;;;;;;;;;;;;;6139473;23;19922;-82
2023/02/27 01:05:59;;;;;;;;;;;;;;;;;;6139497;23;19909;-82
2023/02/27 01:08:25;;;;;;;;;;;;;;;;;;6162629;23;19920;-82
2023/02/27 01:10:50;;;;;;;;;;;;;;;;;;6162479;23;19913;-81
2023/02/27 01:13:15;;;;;;;;;;;;;;;;;;6161780;23;19908;-82
2023/02/27 01:15:41;;;;;;;;;;;;;;;;;;6166426;23;19924;-83
2023/02/27 01:18:07;;;;;;;;;;;;;;;;;;6167133;23;19909;-81
2023/02/27 01:20:33;;;;;;;;;;;;;;;;;;6138804;23;20326;-81
2023/02/27 01:22:58;;;;;;;;;;;;;;;;;;6165163;23;19912;-82
2023/02/27 01:25:23;;;;;;;;;;;;;;;;;;6163331;23;19912;-82
2023/02/27 01:27:49;;;;;;;;;;;;;;;;;;6164674;23;19909;-81
2023/02/27 01:30:15;;;;;;;;;;;;;;;;;;6165403;23;19919;-82
2023/02/27 01:32:41;;;;;;;;;;;;;;;;;;6166871;23;19915;-82
2023/02/27 01:35:06;;;;;;;;;;;;;;;;;;6169873;23;19916;-81
2023/02/27 01:37:31;;;;;;;;;;;;;;;;;;6173999;23;19924;-82
2023/02/27 01:39:57;;;;;;;;;;;;;;;;;;6150566;23;19915;-83
2023/02/27 01:42:23;;;;;;;;;;;;;;;;;;6172656;23;19915;-81
2023/02/27 01:44:48;;;;;;;;;;;;;;;;;;6169326;23;19932;-82
2023/02/27 01:47:14;;;;;;;;;;;;;;;;;;6169698;23;19915;-83
2023/02/27 01:49:39;;;;;;;;;;;;;;;;;;6170705;23;19983;-81
2023/02/27 01:52:05;;;;;;;;;;;;;;;;;;6171965;23;19920;-82
2023/02/27 01:54:30;;;;;;;;;;;;;;;;;;6171787;23;19913;-83
2023/02/27 01:56:55;;;;;;;;;;;;;;;;;;6170285;23;19916;-82
2023/02/27 01:59:21;;;;;;;;;;;;;;;;;;6171582;23;19908;-82
2023/02/27 02:01:48;;;;;;;;;;;;;;;;;;6173579;23;20358;-81
2023/02/27 02:04:14;;;;;;;;;;;;;;;;;;6171276;23;19932;-82
2023/02/27 02:06:39;;;;;;;;;;;;;;;;;;6146602;23;19953;-83
2023/02/27 02:09:05;;;;;;;;;;;;;;;;;;6171545;23;19912;-83
2023/02/27 02:11:30;;;;;;;;;;;;;;;;;;6171523;23;19908;-82
2023/02/27 02:13:55;;;;;;;;;;;;;;;;;;6173101;23;19908;-82
2023/02/27 02:16:21;;;;;;;;;;;;;;;;;;6173409;23;19915;-82
2023/02/27 02:18:48;;;;;;;;;;;;;;;;;;6173680;23;19908;-82
2023/02/27 02:21:13;;;;;;;;;;;;;;;;;;6175652;23;19916;-82
2023/02/27 02:23:38;;;;;;;;;;;;;;;;;;6179707;23;19901;-83
2023/02/27 02:26:04;;;;;;;;;;;;;;;;;;6178843;23;19932;-81
2023/02/27 02:28:30;;;;;;;;;;;;;;;;;;6177551;23;19925;-81
2023/02/27 02:30:57;;;;;;;;;;;;;;;;;;6166307;23;19909;-82
2023/02/27 02:33:22;;;;;;;;;;;;;;;;;;6170961;23;20294;-82
2023/02/27 02:35:47;;;;;;;;;;;;;;;;;;6169111;23;19909;-82
2023/02/27 02:38:13;;;;;;;;;;;;;;;;;;6168892;23;19909;-82
2023/02/27 02:40:38;;;;;;;;;;;;;;;;;;6171871;23;19912;-83
2023/02/27 02:43:03;;;;;;;;;;;;;;;;;;6175347;23;20036;-82
2023/02/27 02:45:29;;;;;;;;;;;;;;;;;;6167617;23;19912;-82
2023/02/27 02:47:54;;;;;;;;;;;;;;;;;;6166814;23;19921;-82
2023/02/27 02:50:20;;;;;;;;;;;;;;;;;;6125886;23;19893;-82
2023/02/27 02:52:45;;;;;;;;;;;;;;;;;;6184667;23;19903;-83
2023/02/27 02:55:11;;;;;;;;;;;;;;;;;;6172732;23;20335;-83
2023/02/27 02:57:36;;;;;;;;;;;;;;;;;;6173025;23;19915;-83
2023/02/27 03:00:04;;;;;;;;;;;;;;;;;;6172236;23;19963;-83
2023/02/27 03:02:30;;;;;;;;;;;;;;;;;;6143917;23;19909;-83
2023/02/27 03:04:55;;;;;;;;;;;;;;;;;;6171078;23;19917;-83
2023/02/27 03:07:20;;;;;;;;;;;;;;;;;;6171702;23;19916;-83
2023/02/27 03:09:46;;;;;;;;;;;;;;;;;;6170671;23;19909;-82
2023/02/27 03:12:11;;;;;;;;;;;;;;;;;;6170473;23;19908;-82
2023/02/27 03:14:37;;;;;;;;;;;;;;;;;;6144068;23;19909;-83
2023/02/27 03:17:04;;;;;;;;;;;;;;;;;;6145055;23;19912;-82
2023/02/27 03:19:29;;;;;;;;;;;;;;;;;;6165891;23;20346;-82
2023/02/27 03:21:55;;;;;;;;;;;;;;;;;;6168563;23;19909;-82
2023/02/27 03:24:20;;;;;;;;;;;;;;;;;;6118468;23;19920;-83
2023/02/27 03:26:46;;;;;;;;;;;;;;;;;;6119784;23;19908;-80
2023/02/27 03:29:12;;;;;;;;;;;;;;;;;;6166442;23;19936;-82
2023/02/27 03:31:37;;;;;;;;;;;;;;;;;;6167592;23;19909;-82
2023/02/27 03:34:03;;;;;;;;;;;;;;;;;;6142971;23;19943;-83
2023/02/27 03:36:28;;;;;;;;;;;;;;;;;;6144337;23;19905;-83
2023/02/27 03:38:54;;;;;;;;;;;;;;;;;;6147836;23;19913;-83
2023/02/27 03:41:20;;;;;;;;;;;;;;;;;;6147183;23;19908;-82
2023/02/27 03:43:52;;;;;;;;;;;;;;;;;;6170156;23;19912;-82
2023/02/27 03:46:19;;;;;;;;;;;;;;;;;;6172479;23;19893;-84
2023/02/27 03:48:44;;;;;;;;;;;;;;;;;;6178891;23;20445;-83
2023/02/27 03:51:10;;;;;;;;;;;;;;;;;;6153135;23;19932;-83
2023/02/27 03:53:35;;;;;;;;;;;;;;;;;;6177910;23;19940;-83
2023/02/27 03:56:00;;;;;;;;;;;;;;;;;;6179316;23;19916;-83
2023/02/27 03:58:26;;;;;;;;;;;;;;;;;;6178209;23;19900;-83
2023/02/27 04:00:51;;;;;;;;;;;;;;;;;;6177958;23;19908;-83
2023/02/27 04:03:17;;;;;;;;;;;;;;;;;;6176620;23;19909;-84
2023/02/27 04:05:42;;;;;;;;;;;;;;;;;;6178383;23;20334;-83
2023/02/27 04:08:07;;;;;;;;;;;;;;;;;;6180312;23;19909;-83
2023/02/27 04:10:33;;;;;;;;;;;;;;;;;;6181890;23;19908;-82
2023/02/27 04:12:58;;;;;;;;;;;;;;;;;;6179371;23;19908;-82
2023/02/27 04:15:24;;;;;;;;;;;;;;;;;;6175247;23;19912;-83
2023/02/27 04:17:49;;;;;;;;;;;;;;;;;;6177015;23;19955;-83
2023/02/27 04:20:14;;;;;;;;;;;;;;;;;;6177912;23;19920;-82
2023/02/27 04:22:40;;;;;;;;;;;;;;;;;;6178965;23;19904;-83
2023/02/27 04:25:06;;;;;;;;;;;;;;;;;;6176548;23;19928;-82
2023/02/27 04:27:31;;;;;;;;;;;;;;;;;;6177829;23;19915;-83
2023/02/27 04:29:56;;;;;;;;;;;;;;;;;;6176709;23;19909;-82
2023/02/27 04:32:24;;;;;;;;;;;;;;;;;;6175849;23;19953;-83
2023/02/27 04:34:49;;;;;;;;;;;;;;;;;;6175077;23;19908;-83
2023/02/27 04:37:15;;;;;;;;;;;;;;;;;;6175772;23;20025;-82
2023/02/27 04:39:40;;;;;;;;;;;;;;;;;;6175935;23;20000;-81
2023/02/27 04:42:05;;;;;;;;;;;;;;;;;;6155776;23;19900;-83
2023/02/27 04:44:31;;;;;;;;;;;;;;;;;;6181474;23;19912;-82
2023/02/27 04:46:56;;;;;;;;;;;;;;;;;;6182139;23;19932;-81
2023/02/27 04:49:21;;;;;;;;;;;;;;;;;;6157043;23;19915;-83
2023/02/27 04:51:47;;;;;;;;;;;;;;;;;;6182360;23;20239;-82
2023/02/27 04:54:12;;;;;;;;;;;;;;;;;;6183874;23;19908;-82
2023/02/27 04:56:38;;;;;;;;;;;;;;;;;;6176345;23;19912;-81
2023/02/27 04:59:03;;;;;;;;;;;;;;;;;;6169548;23;19916;-81
2023/02/27 05:01:29;;;;;;;;;;;;;;;;;;6167931;23;19916;-82
2023/02/27 05:03:54;;;;;;;;;;;;;;;;;;6169726;23;19959;-81
2023/02/27 05:06:20;;;;;;;;;;;;;;;;;;6147421;23;19928;-83
2023/02/27 05:08:45;;;;;;;;;;;;;;;;;;6177205;23;19905;-83
2023/02/27 05:11:10;;;;;;;;;;;;;;;;;;6177604;23;20228;-82
2023/02/27 05:13:36;;;;;;;;;;;;;;;;;;6177687;23;19971;-82
2023/02/27 05:16:01;;;;;;;;;;;;;;;;;;6179430;23;19932;-83
2023/02/27 05:18:27;;;;;;;;;;;;;;;;;;6178294;23;19940;-83
2023/02/27 05:20:52;;;;;;;;;;;;;;;;;;6179674;23;20207;-83
2023/02/27 05:23:18;;;;;;;;;;;;;;;;;;6180418;23;19920;-82
2023/02/27 05:25:43;;;;;;;;;;;;;;;;;;6182723;23;19923;-83
2023/02/27 05:28:08;;;;;;;;;;;;;;;;;;6155609;23;19916;-83
2023/02/27 05:30:34;;;;;;;;;;;;;;;;;;6180021;23;19928;-83
2023/02/27 05:32:59;;;;;;;;;;;;;;;;;;6181562;23;19935;-84
2023/02/27 05:35:25;;;;;;;;;;;;;;;;;;6154438;23;19912;-83
2023/02/27 05:37:50;;;;;;;;;;;;;;;;;;6181522;23;19935;-82
2023/02/27 05:40:16;;;;;;;;;;;;;;;;;;6181525;23;19908;-82
2023/02/27 05:42:42;;;;;;;;;;;;;;;;;;6181536;23;19909;-83
2023/02/27 05:45:07;;;;;;;;;;;;;;;;;;6181577;23;19924;-82
2023/02/27 05:47:34;;;;;;;;;;;;;;;;;;6179661;23;20274;-82
2023/02/27 05:50:00;;;;;;;;;;;;;;;;;;6179764;23;19909;-81
2023/02/27 05:52:25;;;;;;;;;;;;;;;;;;6178977;23;19909;-81
2023/02/27 05:54:50;;;;;;;;;;;;;;;;;;6177088;23;19905;-83
2023/02/27 05:57:16;;;;;;;;;;;;;;;;;;6176180;23;19948;-82
2023/02/27 05:59:42;;;;;;;;;;;;;;;;;;6173487;23;19916;-82
2023/02/27 06:02:07;;;;;;;;;;;;;;;;;;6177917;23;19916;-82
2023/02/27 06:04:33;;;;;;;;;;;;;;;;;;6174471;23;19913;-80
2023/02/27 06:06:58;;;;;;;;;;;;;;;;;;6173172;23;19908;-82
2023/02/27 06:09:23;;;;;;;;;;;;;;;;;;6169516;23;19913;-82
2023/02/27 06:11:49;;;;;;;;;;;;;;;;;;6173368;23;19909;-81
2023/02/27 06:14:14;;;;;;;;;;;;;;;;;;6167788;23;19932;-83
2023/02/27 06:16:40;;;;;;;;;;;;;;;;;;6141535;23;19956;-82
2023/02/27 06:19:05;;;;;;;;;;;;;;;;;;6139123;23;19916;-81
2023/02/27 06:21:31;;;;;;;;;;;;;;;;;;6168767;23;19893;-82
2023/02/27 06:23:56;;;;;;;;;;;;;;;;;;6175931;23;20232;-82
2023/02/27 06:26:22;;;;;;;;;;;;;;;;;;6177324;23;19953;-82
2023/02/27 06:28:47;;;;;;;;;;;;;;;;;;6173843;23;19963;-82
2023/02/27 06:31:12;;;;;;;;;;;;;;;;;;6148904;23;19980;-83
2023/02/27 06:33:38;;;;;;;;;;;;;;;;;;6174219;23;19912;-82
2023/02/27 06:36:03;;;;;;;;;;;;;;;;;;6172214;23;20290;-82
2023/02/27 06:38:29;;;;;;;;;;;;;;;;;;6174462;23;19924;-82
2023/02/27 06:40:54;;;;;;;;;;;;;;;;;;6177102;23;19932;-84
2023/02/27 06:43:22;;;;;;;;;;;;;;;;;;6176934;23;19925;-82
2023/02/27 06:45:47;;;;;;;;;;;;;;;;;;6178541;23;19905;-83
2023/02/27 06:48:13;;;;;;;;;;;;;;;;;;6152437;23;19978;-82
2023/02/27 06:50:39;;;;;;;;;;;;;;;;;;6153289;23;19936;-81
2023/02/27 06:53:05;;;;;;;;;;;;;;;;;;6150155;23;19913;-83
2023/02/27 06:55:31;;;;;;;;;;;;;;;;;;6175502;23;19932;-83
2023/02/27 06:57:56;;;;;;;;;;;;;;;;;;6177489;23;19909;-84
2023/02/27 07:00:22;;;;;;;;;;;;;;;;;;6178820;23;19916;-83
2023/02/27 07:02:47;;;;;;;;;;;;;;;;;;6176456;23;19916;-82
2023/02/27 07:05:13;;;;;;;;;;;;;;;;;;6151430;23;19912;-82
2023/02/27 07:07:38;;;;;;;;;;;;;;;;;;6173755;23;19913;-81
2023/02/27 07:10:03;;;;;;;;;;;;;;;;;;6125778;23;19900;-82
2023/02/27 07:12:29;;;;;;;;;;;;;;;;;;6173610;23;19915;-82
2023/02/27 07:14:54;;;;;;;;;;;;;;;;;;6177301;23;19912;-81
2023/02/27 07:17:21;;;;;;;;;;;;;;;;;;6178118;23;19915;-81
2023/02/27 07:19:46;;;;;;;;;;;;;;;;;;6178322;23;19909;-83
2023/02/27 07:22:12;;;;;;;;;;;;;;;;;;6179118;23;19893;-80
2023/02/27 07:24:37;;;;;;;;;;;;;;;;;;6179440;23;19912;-82
2023/02/27 07:27:03;;;;;;;;;;;;;;;;;;6177327;23;19909;-83
2023/02/27 07:29:28;;;;;;;;;;;;;;;;;;6180477;23;19919;-83
2023/02/27 07:31:54;;;;;;;;;;;;;;;;;;6153978;23;19913;-82
2023/02/27 07:34:19;;;;;;;;;;;;;;;;;;6179244;23;19909;-83
2023/02/27 07:36:45;;;;;;;;;;;;;;;;;;6177264;23;19913;-82
2023/02/27 07:39:10;;;;;;;;;;;;;;;;;;6177611;23;19920;-82
2023/02/27 07:41:36;;;;;;;;;;;;;;;;;;6178865;23;19932;-82
2023/02/27 07:44:03;;;;;;;;;;;;;;;;;;6181241;23;19948;-82
2023/02/27 07:46:28;;;;;;;;;;;;;;;;;;6182010;23;19893;-83
2023/02/27 07:48:54;;;;;;;;;;;;;;;;;;6182259;23;19916;-83
2023/02/27 07:51:20;;;;;;;;;;;;;;;;;;6179612;23;19915;-83
2023/02/27 07:53:45;;;;;;;;;;;;;;;;;;6180812;23;19932;-82
2023/02/27 07:56:11;;;;;;;;;;;;;;;;;;6156128;23;20398;-82
2023/02/27 07:58:37;;;;;;;;;;;;;;;;;;6181796;23;19913;-82
2023/02/27 08:01:02;;;;;;;;;;;;;;;;;;6181663;23;19909;-83
2023/02/27 08:03:27;;;;;;;;;;;;;;;;;;6181037;23;19899;-82
2023/02/27 08:05:53;;;;;;;;;;;;;;;;;;6181026;23;19893;-82
2023/02/27 08:08:20;;;;;;;;;;;;;;;;;;6154521;23;19909;-83
2023/02/27 08:10:46;;;;;;;;;;;;;;;;;;6176903;23;19908;-81
2023/02/27 08:13:12;;;;;;;;;;;;;;;;;;6176515;23;19957;-83
2023/02/27 08:15:38;;;;;;;;;;;;;;;;;;6175653;23;19908;-82
2023/02/27 08:18:03;;;;;;;;;;;;;;;;;;6171632;23;19916;-80
2023/02/27 08:20:29;;;;;;;;;;;;;;;;;;6176533;23;20374;-82
2023/02/27 08:22:54;;;;;;;;;;;;;;;;;;6181165;23;19913;-82
2023/02/27 08:25:20;;;;;;;;;;;;;;;;;;6182625;23;19908;-82
2023/02/27 08:27:45;;;;;;;;;;;;;;;;;;6182868;23;19940;-81
2023/02/27 08:30:11;;;;;;;;;;;;;;;;;;6184493;23;19897;-82
2023/02/27 08:32:37;;;;;;;;;;;;;;;;;;6159367;23;19936;-79
2023/02/27 08:35:06;;;;;;;;;;;;;;;;;;6133451;23;19979;-81
2023/02/27 08:37:32;;;;;;;;;;;;;;;;;;6176440;23;19912;-83
2023/02/27 08:39:57;;;;;;;;;;;;;;;;;;6173413;23;19909;-82
2023/02/27 08:42:23;;;;;;;;;;;;;;;;;;6165626;23;19909;-83
2023/02/27 08:44:55;;;;;;;;;;;;;;;;;;6166692;23;19936;-83
2023/02/27 08:47:24;;;;;;;;;;;;;;;;;;6147603;23;19909;-83
2023/02/27 08:49:49;;;;;;;;;;;;;;;;;;6152799;23;19909;-83
2023/02/27 08:52:14;;;;;;;;;;;;;;;;;;6179501;23;19912;-83
2023/02/27 08:54:40;;;;;;;;;;;;;;;;;;6153262;23;19908;-82
2023/02/27 08:57:06;;;;;;;;;;;;;;;;;;6177204;23;19963;-83
2023/02/27 08:59:31;;;;;;;;;;;;;;;;;;6154019;23;19916;-83
2023/02/27 09:01:57;;;;;;;;;;;;;;;;;;6156221;23;19908;-83
2023/02/27 09:04:23;;;;;;;;;;;;;;;;;;6182013;23;19900;-83
2023/02/27 09:06:48;;;;;;;;;;;;;;;;;;6158113;23;19940;-82
2023/02/27 09:09:14;;;;;;;;;;;;;;;;;;6183384;23;20396;-82
2023/02/27 09:11:39;;;;;;;;;;;;;;;;;;6183022;23;19915;-82
2023/02/27 09:14:05;;;;;;;;;;;;;;;;;;6182007;23;19928;-81
2023/02/27 09:16:30;;;;;;;;;;;;;;;;;;6182417;23;19915;-81
2023/02/27 09:18:56;;;;;;;;;;;;;;;;;;6181627;23;19909;-83
2023/02/27 09:21:23;;;;;;;;;;;;;;;;;;6181087;23;19908;-82
2023/02/27 09:23:48;;;;;;;;;;;;;;;;;;6156535;23;19921;-82
2023/02/27 09:26:15;;;;;;;;;;;;;;;;;;6180433;23;19909;-80
2023/02/27 09:28:41;;;;;;;;;;;;;;;;;;6179329;23;19957;-82
2023/02/27 09:31:06;;;;;;;;;;;;;;;;;;6179978;23;19930;-83
2023/02/27 09:33:31;;;;;;;;;;;;;;;;;;6179180;23;19932;-83
2023/02/27 09:35:57;;;;;;;;;;;;;;;;;;6177038;23;19952;-82
2023/02/27 09:38:23;;;;;;;;;;;;;;;;;;6176045;23;19919;-82
2023/02/27 09:40:48;;;;;;;;;;;;;;;;;;6175448;23;19909;-82
2023/02/27 09:43:14;;;;;;;;;;;;;;;;;;6178052;23;19993;-82
2023/02/27 09:45:39;;;;;;;;;;;;;;;;;;6177603;23;19922;-82
2023/02/27 09:48:05;;;;;;;;;;;;;;;;;;6150430;23;20053;-82
2023/02/27 09:50:30;;;;;;;;;;;;;;;;;;6176463;23;19914;-83
2023/02/27 09:52:56;;;;;;;;;;;;;;;;;;6150153;23;20007;-82
2023/02/27 09:55:21;;;;;;;;;;;;;;;;;;6176154;23;19909;-82
2023/02/27 09:57:46;;;;;;;;;;;;;;;;;;6177026;23;19908;-83
2023/02/27 10:00:12;;;;;;;;;;;;;;;;;;6175823;23;19928;-82
2023/02/27 10:02:37;;;;;;;;;;;;;;;;;;6173637;23;19934;-82
2023/02/27 10:05:03;;;;;;;;;;;;;;;;;;6173118;23;19915;-83
2023/02/27 10:07:28;;;;;;;;;;;;;;;;;;6169396;23;19909;-81
2023/02/27 10:09:54;;;;;;;;;;;;;;;;;;6168539;23;19936;-81
2023/02/27 10:12:19;;;;;;;;;;;;;;;;;;6166865;23;19933;-82
2023/02/27 10:14:45;;;;;;;;;;;;;;;;;;6167703;23;19908;-81
2023/02/27 10:17:10;;;;;;;;;;;;;;;;;;6167224;23;19909;-82
2023/02/27 10:19:36;;;;;;;;;;;;;;;;;;6171829;23;19967;-83
2023/02/27 10:22:01;;;;;;;;;;;;;;;;;;6176756;23;19908;-81
2023/02/27 10:24:27;;;;;;;;;;;;;;;;;;6179524;23;19913;-84
2023/02/27 10:26:52;;;;;;;;;;;;;;;;;;6176126;23;19924;-82
2023/02/27 10:29:18;;;;;;;;;;;;;;;;;;6184752;23;19932;-83
2023/02/27 10:31:43;;;;;;;;;;;;;;;;;;6159081;23;19915;-83
2023/02/27 10:34:09;;;;;;;;;;;;;;;;;;6184462;23;19908;-82
2023/02/27 10:36:34;;;;;;;;;;;;;;;;;;6183896;23;19909;-84
2023/02/27 10:38:59;;;;;;;;;;;;;;;;;;6170891;23;19972;-85
2023/02/27 10:44:08;;;;;;;;;;;;;;;;;;6155370;23;19921;-77
2023/02/27 10:46:34;;;;;;;;;;;;;;;;;;6211165;23;19904;-84
2023/02/27 10:59:46;;;;;;;;;;;;;;;;;;6168738;23;19905;-85
2023/02/27 11:02:13;;;;;;;;;;;;;;;;;;6183522;23;19904;-86
2023/02/27 11:04:42;;;;;;;;;;;;;;;;;;6152933;23;19904;-82
2023/02/27 11:07:07;;;;;;;;;;;;;;;;;;6175453;23;19931;-85
2023/02/27 11:09:33;;;;;;;;;;;;;;;;;;6180839;23;19912;-83
2023/02/27 11:11:58;;;;;;;;;;;;;;;;;;6187816;23;19964;-84
2023/02/27 11:14:24;;;;;;;;;;;;;;;;;;6214702;23;19901;-84
2023/02/27 11:19:27;;;;;;;;;;;;;;;;;;6150065;23;19917;-85
2023/02/27 11:27:04;;;;;;;;;;;;;;;;;;6144868;23;20544;-82
2023/02/27 11:29:30;;;;;;;;;;;;;;;;;;6134811;23;19903;-85
2023/02/27 11:53:39;;;;;;;;;;;;;;;;;;6174579;23;19972;-85
2023/02/27 11:56:05;;;;;;;;;;;;;;;;;;6181853;23;19924;-79
2023/02/27 11:58:30;;;;;;;;;;;;;;;;;;6208881;23;19901;-84
2023/02/27 12:00:56;;;;;;;;;;;;;;;;;;6183732;23;19919;-89
2023/02/27 12:03:21;;;;;;;;;;;;;;;;;;6182838;23;19923;-89
2023/02/27 12:05:47;;;;;;;;;;;;;;;;;;6207337;23;19917;-87
2023/02/27 12:08:12;;;;;;;;;;;;;;;;;;6157156;23;19928;-84
2023/02/27 12:10:38;;;;;;;;;;;;;;;;;;6183547;23;19896;-85
2023/02/27 12:13:05;;;;;;;;;;;;;;;;;;6183984;23;19919;-85
2023/02/27 12:15:33;;;;;;;;;;;;;;;;;;6158852;23;19948;-84
2023/02/27 12:17:58;;;;;;;;;;;;;;;;;;6213309;23;19900;-88
2023/02/27 12:20:24;;;;;;;;;;;;;;;;;;6188234;23;19911;-90
2023/02/27 12:22:49;;;;;;;;;;;;;;;;;;6161756;23;19904;-89
2023/02/27 12:25:15;;;;;;;;;;;;;;;;;;6207211;23;19912;-89
2023/02/27 12:27:40;;;;;;;;;;;;;;;;;;6206482;23;19912;-90
2023/02/27 12:30:06;;;;;;;;;;;;;;;;;;6210883;23;19917;-86
2023/02/27 12:32:32;;;;;;;;;;;;;;;;;;6187224;23;19908;-86
2023/02/27 12:34:57;;;;;;;;;;;;;;;;;;6161777;23;19935;-86
2023/02/27 12:37:22;;;;;;;;;;;;;;;;;;6179790;23;20028;-88
2023/02/27 12:39:48;;;;;;;;;;;;;;;;;;6181143;23;19968;-86
2023/02/27 12:42:13;;;;;;;;;;;;;;;;;;6180419;23;19914;-86
2023/02/27 12:44:40;;;;;;;;;;;;;;;;;;6206630;23;19947;-89
2023/02/27 12:47:07;;;;;;;;;;;;;;;;;;6180854;23;20307;-88
2023/02/27 12:49:32;;;;;;;;;;;;;;;;;;6185010;23;19934;-87
2023/02/27 12:51:58;;;;;;;;;;;;;;;;;;6209066;23;19908;-86
2023/02/27 12:54:23;;;;;;;;;;;;;;;;;;6155401;23;19908;-88
2023/02/27 12:56:48;;;;;;;;;;;;;;;;;;6201677;23;19983;-87
2023/02/27 12:59:14;;;;;;;;;;;;;;;;;;6154819;23;19915;-87
2023/02/27 13:01:39;;;;;;;;;;;;;;;;;;6180072;23;19943;-85
2023/02/27 13:04:06;;;;;;;;;;;;;;;;;;6181969;23;19912;-89
2023/02/27 13:06:31;;;;;;;;;;;;;;;;;;6181984;23;19909;-87
2023/02/27 13:08:56;;;;;;;;;;;;;;;;;;6208486;23;19913;-85
2023/02/27 13:11:22;;;;;;;;;;;;;;;;;;6159911;23;19909;-85
2023/02/27 13:13:47;;;;;;;;;;;;;;;;;;6207565;23;19936;-86
2023/02/27 13:16:13;;;;;;;;;;;;;;;;;;6185502;23;19957;-85
2023/02/27 13:18:38;;;;;;;;;;;;;;;;;;6186285;23;19896;-83
2023/02/27 13:21:04;;;;;;;;;;;;;;;;;;6187331;23;20383;-83
2023/02/27 13:23:29;;;;;;;;;;;;;;;;;;6188392;23;19923;-82
2023/02/27 13:25:54;;;;;;;;;;;;;;;;;;6214460;23;19904;-86
2023/02/27 13:28:20;;;;;;;;;;;;;;;;;;6188862;23;19908;-87
2023/02/27 13:30:45;;;;;;;;;;;;;;;;;;6163661;23;19952;-86
2023/02/27 13:33:11;;;;;;;;;;;;;;;;;;6178717;23;20207;-87
2023/02/27 13:35:36;;;;;;;;;;;;;;;;;;6170611;23;19908;-88
2023/02/27 13:38:04;;;;;;;;;;;;;;;;;;6190938;23;19908;-86
2023/02/27 13:40:29;;;;;;;;;;;;;;;;;;6138560;23;19935;-89
2023/02/27 13:42:54;;;;;;;;;;;;;;;;;;6138795;23;20262;-89
2023/02/27 13:45:20;;;;;;;;;;;;;;;;;;6162597;23;19918;-88
2023/02/27 13:47:45;;;;;;;;;;;;;;;;;;6138650;23;19909;-87
2023/02/27 13:50:11;;;;;;;;;;;;;;;;;;6162236;23;20250;-90
2023/02/27 13:52:36;;;;;;;;;;;;;;;;;;6188139;23;19935;-91
2023/02/27 13:55:02;;;;;;;;;;;;;;;;;;6189299;23;19952;-89
2023/02/27 13:57:28;;;;;;;;;;;;;;;;;;6171730;23;19995;-88
2023/02/27 13:59:53;;;;;;;;;;;;;;;;;;6196222;23;19911;-87
2023/02/27 14:02:19;;;;;;;;;;;;;;;;;;6193765;23;20020;-90
2023/02/27 14:04:44;;;;;;;;;;;;;;;;;;6144069;23;19912;-87
2023/02/27 14:07:10;;;;;;;;;;;;;;;;;;6143977;23;19984;-88
2023/02/27 14:09:35;;;;;;;;;;;;;;;;;;6143202;23;19984;-88
2023/02/27 14:12:01;;;;;;;;;;;;;;;;;;6171925;23;19933;-87
2023/02/27 14:14:26;;;;;;;;;;;;;;;;;;6195063;23;19932;-85
2023/02/27 14:16:52;;;;;;;;;;;;;;;;;;6172408;23;19941;-88
2023/02/27 14:19:17;;;;;;;;;;;;;;;;;;6171562;23;19919;-89
2023/02/27 14:21:43;;;;;;;;;;;;;;;;;;6201896;23;19908;-86
2023/02/27 14:24:08;;;;;;;;;;;;;;;;;;6202897;23;20306;-88
2023/02/27 14:26:33;;;;;;;;;;;;;;;;;;6205157;23;19908;-87
2023/02/27 14:28:59;;;;;;;;;;;;;;;;;;6182106;23;19959;-85
2023/02/27 14:31:25;;;;;;;;;;;;;;;;;;6182705;23;19908;-87
2023/02/27 14:33:53;;;;;;;;;;;;;;;;;;6185609;23;19892;-84
2023/02/27 14:36:19;;;;;;;;;;;;;;;;;;6211949;23;19896;-85
2023/02/27 14:38:44;;;;;;;;;;;;;;;;;;6211396;23;19907;-84
2023/02/27 14:41:10;;;;;;;;;;;;;;;;;;6211037;23;19909;-82
2023/02/27 14:43:36;;;;;;;;;;;;;;;;;;6211797;23;19915;-82
2023/02/27 14:46:01;;;;;;;;;;;;;;;;;;6213345;23;19901;-82
2023/02/27 14:48:27;;;;;;;;;;;;;;;;;;6212580;23;20007;-83
2023/02/27 14:50:52;;;;;;;;;;;;;;;;;;6160748;23;19940;-81
2023/02/27 14:53:18;;;;;;;;;;;;;;;;;;6210111;23;19915;-84
2023/02/27 14:55:43;;;;;;;;;;;;;;;;;;6210512;23;19908;-83
2023/02/27 14:58:09;;;;;;;;;;;;;;;;;;6209421;23;19998;-82
2023/02/27 15:00:34;;;;;;;;;;;;;;;;;;6211398;23;19901;-84
2023/02/27 15:02:59;;;;;;;;;;;;;;;;;;6212851;23;19942;-84
2023/02/27 15:05:25;;;;;;;;;;;;;;;;;;6213625;23;19948;-86
2023/02/27 15:07:53;;;;;;;;;;;;;;;;;;6160340;23;19905;-85
2023/02/27 15:10:22;;;;;;;;;;;;;;;;;;6213814;23;19953;-85
2023/02/27 15:12:48;;;;;;;;;;;;;;;;;;6188690;23;20314;-84
2023/02/27 15:15:13;;;;;;;;;;;;;;;;;;6214336;23;19903;-84
2023/02/27 15:17:39;;;;;;;;;;;;;;;;;;6163423;23;19917;-84
2023/02/27 15:20:05;;;;;;;;;;;;;;;;;;6188572;23;19896;-84
2023/02/27 15:22:30;;;;;;;;;;;;;;;;;;6188616;23;19907;-85
2023/02/27 15:24:56;;;;;;;;;;;;;;;;;;6187985;23;19944;-83
2023/02/27 15:27:21;;;;;;;;;;;;;;;;;;6164052;23;19900;-82
2023/02/27 15:29:47;;;;;;;;;;;;;;;;;;6163870;23;19920;-84
2023/02/27 15:32:12;;;;;;;;;;;;;;;;;;6213971;23;19919;-83
2023/02/27 15:34:38;;;;;;;;;;;;;;;;;;6164125;23;19911;-84
2023/02/27 15:37:03;;;;;;;;;;;;;;;;;;6163288;23;19916;-83
2023/02/27 15:39:29;;;;;;;;;;;;;;;;;;6213702;23;19900;-84
2023/02/27 15:41:55;;;;;;;;;;;;;;;;;;6188045;23;19919;-85
2023/02/27 15:44:20;;;;;;;;;;;;;;;;;;6187623;23;19904;-84
2023/02/27 15:46:46;;;;;;;;;;;;;;;;;;6214086;23;19897;-83
2023/02/27 15:49:12;;;;;;;;;;;;;;;;;;6188536;23;19901;-83
2023/02/27 15:51:37;;;;;;;;;;;;;;;;;;6163335;23;19900;-84
2023/02/27 15:54:03;;;;;;;;;;;;;;;;;;6162860;23;19896;-83
2023/02/27 15:56:28;;;;;;;;;;;;;;;;;;6180189;23;19915;-83
2023/02/27 15:58:57;;;;;;;;;;;;;;;;;;6186865;23;19919;-83
2023/02/27 16:01:23;;;;;;;;;;;;;;;;;;6188781;23;19944;-85
2023/02/27 16:03:48;;;;;;;;;;;;;;;;;;6187921;23;19912;-84
2023/02/27 16:06:14;;;;;;;;;;;;;;;;;;6214683;23;19916;-85
2023/02/27 16:08:41;;;;;;;;;;;;;;;;;;6165650;23;19907;-84
2023/02/27 16:11:07;;;;;;;;;;;;;;;;;;6190223;23;19913;-85
2023/02/27 16:13:35;;;;;;;;;;;;;;;;;;6189856;23;19912;-83
2023/02/27 16:16:01;;;;;;;;;;;;;;;;;;6215093;23;19902;-84
2023/02/27 16:18:27;;;;;;;;;;;;;;;;;;6165258;23;19897;-84
2023/02/27 16:20:57;;;;;;;;;;;;;;;;;;6139851;23;19896;-84
2023/02/27 16:23:26;;;;;;;;;;;;;;;;;;6214519;23;19909;-82
2023/02/27 16:25:52;;;;;;;;;;;;;;;;;;6165224;23;19911;-85
2023/02/27 16:28:18;;;;;;;;;;;;;;;;;;6165602;23;19896;-84
2023/02/27 16:30:46;;;;;;;;;;;;;;;;;;6186757;23;19909;-82
2023/02/27 16:33:18;;;;;;;;;;;;;;;;;;6203673;23;19915;-83
2023/02/27 16:35:44;;;;;;;;;;;;;;;;;;6179792;23;19924;-85
2023/02/27 16:38:10;;;;;;;;;;;;;;;;;;6186237;23;19903;-83
2023/02/27 16:40:39;;;;;;;;;;;;;;;;;;6187570;23;19957;-82
2023/02/27 16:43:05;;;;;;;;;;;;;;;;;;6188764;23;19892;-83
2023/02/27 16:45:30;;;;;;;;;;;;;;;;;;6213649;23;19912;-84
2023/02/27 16:47:59;;;;;;;;;;;;;;;;;;6212933;23;19908;-85
2023/02/27 16:50:27;;;;;;;;;;;;;;;;;;6163397;23;19896;-84
2023/02/27 16:52:53;;;;;;;;;;;;;;;;;;6187838;23;19900;-84
2023/02/27 16:55:18;;;;;;;;;;;;;;;;;;6181238;23;19918;-84
2023/02/27 16:57:44;;;;;;;;;;;;;;;;;;6184139;23;19936;-83
2023/02/27 17:00:13;;;;;;;;;;;;;;;;;;6177307;23;19908;-85
2023/02/27 17:02:38;;;;;;;;;;;;;;;;;;6203956;23;19916;-84
2023/02/27 17:05:07;;;;;;;;;;;;;;;;;;6204942;23;19912;-83
2023/02/27 17:07:32;;;;;;;;;;;;;;;;;;6173159;23;19962;-84
2023/02/27 17:09:59;;;;;;;;;;;;;;;;;;6209038;23;19932;-83
2023/02/27 17:12:27;;;;;;;;;;;;;;;;;;6164850;23;19896;-85
2023/02/27 17:14:56;;;;;;;;;;;;;;;;;;6213646;23;19913;-84
2023/02/27 17:17:21;;;;;;;;;;;;;;;;;;6164092;23;20254;-83